Time;durP1;ratioP1;P1;durP2;ratioP2;P2;SDS_P1;SDS_P2;PMS_P1;PMS_P2;Temp;Humidity;BMP_temperature;BMP_pressure;BME280_temperature;BME280_humidity;BME280_pressure;Samples;Min_cycle;Max_cycle;Signal;HPM_P1;HPM_P2
2021/07/29 00:02:09;;;;;;;2.08;0.50;;;17.40;76.30;;;;;;5105619;27;20040;-75
2021/07/29 00:04:36;;;;;;;2.10;0.90;;;17.40;76.50;;;;;;5106314;27;20108;-75
2021/07/29 00:07:03;;;;;;;1.63;0.60;;;17.30;76.50;;;;;;5106109;27;20444;-76
2021/07/29 00:09:30;;;;;;;1.38;0.50;;;17.30;76.50;;;;;;5107490;27;20040;-75
2021/07/29 00:11:57;;;;;;;1.55;0.70;;;17.30;76.50;;;;;;5090847;27;20043;-75
2021/07/29 00:14:24;;;;;;;2.08;0.60;;;17.20;76.50;;;;;;5089677;28;20065;-75
2021/07/29 00:16:57;;;;;;;1.30;0.57;;;17.20;76.60;;;;;;5106311;27;20028;-76
2021/07/29 00:19:23;;;;;;;1.55;0.70;;;17.20;76.60;;;;;;5105584;27;20077;-75
2021/07/29 00:21:51;;;;;;;1.15;0.60;;;17.20;76.60;;;;;;5106119;27;20039;-75
2021/07/29 00:24:18;;;;;;;1.48;0.60;;;17.20;76.50;;;;;;5110341;27;20562;-76
2021/07/29 00:26:45;;;;;;;2.30;0.60;;;17.30;76.50;;;;;;5107927;27;20357;-75
2021/07/29 00:29:12;;;;;;;3.92;0.60;;;17.20;77.00;;;;;;5104671;27;20442;-75
2021/07/29 00:31:40;;;;;;;1.65;0.50;;;17.30;76.40;;;;;;5107732;27;20116;-76
2021/07/29 00:34:07;;;;;;;1.50;0.40;;;17.20;76.30;;;;;;5103910;27;20112;-76
2021/07/29 00:36:34;;;;;;;2.63;0.75;;;17.20;76.40;;;;;;5086298;27;20070;-75
2021/07/29 00:39:02;;;;;;;1.58;0.45;;;17.10;76.50;;;;;;5108346;27;20106;-76
2021/07/29 00:41:29;;;;;;;2.03;0.80;;;17.10;76.60;;;;;;5122238;27;20035;-75
2021/07/29 00:44:01;;;;;;;2.78;0.65;;;17.10;76.60;;;;;;5106319;28;20032;-75
2021/07/29 00:46:30;;;;;;;2.05;0.40;;;17.10;76.80;;;;;;5106181;27;20035;-76
2021/07/29 00:48:58;;;;;;;2.72;0.60;;;17.00;76.70;;;;;;5124006;27;20039;-76
2021/07/29 00:51:26;;;;;;;1.08;0.43;;;17.00;76.80;;;;;;5105735;28;20572;-76
2021/07/29 00:53:53;;;;;;;1.50;0.40;;;16.90;76.80;;;;;;5109390;27;20048;-76
2021/07/29 00:56:20;;;;;;;2.03;0.68;;;16.90;77.50;;;;;;5112261;27;20043;-76
2021/07/29 00:58:48;;;;;;;1.50;0.40;;;16.90;77.00;;;;;;5088576;28;20126;-76
2021/07/29 01:01:15;;;;;;;0.70;0.20;;;16.90;77.10;;;;;;5108458;27;20479;-76
2021/07/29 01:03:42;;;;;;;1.30;0.40;;;16.90;77.10;;;;;;5107959;27;20551;-76
2021/07/29 01:06:09;;;;;;;1.80;0.40;;;16.80;77.20;;;;;;5108109;27;21629;-76
2021/07/29 01:08:59;;;;;;;2.13;0.38;;;16.80;77.30;;;;;;5074631;28;20044;-76
2021/07/29 01:11:26;;;;;;;0.93;0.30;;;16.80;77.30;;;;;;5109655;27;20027;-76
2021/07/29 01:13:53;;;;;;;1.17;0.30;;;16.80;77.40;;;;;;5109725;27;20122;-76
2021/07/29 01:16:20;;;;;;;0.93;0.30;;;16.70;77.40;;;;;;5111431;27;20118;-76
2021/07/29 01:18:47;;;;;;;1.33;0.40;;;16.70;77.50;;;;;;5108644;27;20092;-77
2021/07/29 01:21:14;;;;;;;1.50;0.50;;;16.70;77.50;;;;;;5108400;27;20548;-76
2021/07/29 01:23:41;;;;;;;3.20;0.43;;;16.70;77.50;;;;;;5101990;28;20092;-76
2021/07/29 01:26:08;;;;;;;0.93;0.32;;;16.70;77.60;;;;;;5110360;27;20433;-76
2021/07/29 01:28:35;;;;;;;1.70;0.40;;;16.60;77.60;;;;;;5107823;28;21003;-76
2021/07/29 01:31:02;;;;;;;1.88;0.40;;;16.70;77.70;;;;;;5091625;27;20450;-76
2021/07/29 01:33:30;;;;;;;4.20;0.70;;;16.70;77.60;;;;;;5105229;28;20084;-76
2021/07/29 01:35:57;;;;;;;2.45;0.43;;;16.70;77.60;;;;;;5111423;27;20050;-76
2021/07/29 01:38:24;;;;;;;1.27;0.50;;;16.80;77.60;;;;;;5107880;28;20032;-76
2021/07/29 01:40:51;;;;;;;1.60;0.60;;;16.80;77.30;;;;;;5108727;28;20035;-76
2021/07/29 01:43:19;;;;;;;1.52;0.40;;;16.90;77.20;;;;;;5109054;28;20027;-76
2021/07/29 01:45:46;;;;;;;2.38;0.30;;;16.90;77.10;;;;;;5109061;27;20058;-76
2021/07/29 01:48:13;;;;;;;0.50;0.20;;;17.00;77.10;;;;;;5110451;28;20039;-76
2021/07/29 01:50:40;;;;;;;3.47;0.73;;;17.00;77.00;;;;;;5107700;27;20039;-76
2021/07/29 01:53:07;;;;;;;1.90;0.40;;;17.00;77.10;;;;;;5113307;27;20441;-76
2021/07/29 01:55:34;;;;;;;2.45;0.40;;;17.00;77.00;;;;;;5073086;28;20064;-76
2021/07/29 01:58:01;;;;;;;0.95;0.30;;;17.00;77.00;;;;;;5114120;27;20035;-76
2021/07/29 02:00:28;;;;;;;1.67;0.70;;;17.00;77.00;;;;;;5101898;28;20030;-76
2021/07/29 02:02:55;;;;;;;1.25;0.30;;;17.10;77.00;;;;;;5107122;28;20760;-76
2021/07/29 02:05:22;;;;;;;0.98;0.30;;;17.10;76.90;;;;;;5109743;28;20028;-77
2021/07/29 02:07:49;;;;;;;1.90;0.45;;;17.10;76.90;;;;;;5121151;27;20048;-76
2021/07/29 02:10:16;;;;;;;1.15;0.30;;;17.20;76.80;;;;;;5104928;28;20040;-76
2021/07/29 02:12:43;;;;;;;2.00;0.50;;;17.10;76.80;;;;;;5112944;28;20044;-76
2021/07/29 02:15:11;;;;;;;2.88;0.40;;;17.10;76.90;;;;;;5107810;28;20040;-76
2021/07/29 02:17:42;;;;;;;1.27;0.40;;;17.00;76.90;;;;;;5092879;28;20051;-76
2021/07/29 02:20:10;;;;;;;1.77;0.50;;;17.00;77.10;;;;;;5104730;28;20477;-76
2021/07/29 02:22:37;;;;;;;1.23;0.57;;;16.90;77.20;;;;;;5105727;28;20047;-76
2021/07/29 02:25:05;;;;;;;1.30;0.40;;;16.90;77.20;;;;;;5089373;28;20086;-76
2021/07/29 02:27:34;;;;;;;1.58;0.47;;;16.80;77.30;;;;;;5104082;28;20043;-76
2021/07/29 02:30:02;;;;;;;1.33;0.40;;;16.80;77.50;;;;;;5107121;28;20061;-76
2021/07/29 02:32:29;;;;;;;1.70;0.60;;;16.70;77.70;;;;;;5119803;27;20036;-76
2021/07/29 02:34:56;;;;;;;1.60;0.70;;;16.60;77.80;;;;;;5087939;28;20393;-76
2021/07/29 02:37:24;;;;;;;2.95;0.47;;;16.60;77.90;;;;;;5115764;27;20097;-76
2021/07/29 02:39:51;;;;;;;2.83;0.50;;;16.50;78.00;;;;;;5108326;28;20036;-77
2021/07/29 02:42:18;;;;;;;1.27;0.47;;;16.50;78.10;;;;;;5108145;28;20118;-76
2021/07/29 02:44:45;;;;;;;1.15;0.40;;;16.50;78.10;;;;;;5108190;28;20038;-76
2021/07/29 02:47:13;;;;;;;1.10;0.20;;;16.40;78.10;;;;;;5104522;28;20039;-77
2021/07/29 02:49:40;;;;;;;2.13;0.47;;;16.40;78.10;;;;;;5083498;28;20092;-76
2021/07/29 02:52:07;;;;;;;1.92;0.30;;;16.40;78.30;;;;;;5107247;28;20043;-76
2021/07/29 02:54:35;;;;;;;1.55;0.40;;;16.40;78.30;;;;;;5107413;28;20048;-76
2021/07/29 02:57:02;;;;;;;2.58;0.40;;;16.40;78.30;;;;;;5087659;28;20421;-76
2021/07/29 02:59:29;;;;;;;2.92;0.60;;;16.40;78.30;;;;;;5105937;28;20543;-76
2021/07/29 03:01:56;;;;;;;1.40;0.50;;;16.40;78.90;;;;;;5106822;28;20097;-77
2021/07/29 03:04:24;;;;;;;3.15;0.50;;;16.40;78.20;;;;;;5093518;28;20036;-76
2021/07/29 03:06:53;;;;;;;2.20;0.50;;;16.50;78.20;;;;;;5111824;27;20431;-76
2021/07/29 03:09:20;;;;;;;1.33;0.47;;;16.50;78.10;;;;;;5097001;28;20035;-76
2021/07/29 03:11:47;;;;;;;4.50;0.60;;;16.40;78.10;;;;;;5093982;28;20070;-76
2021/07/29 03:14:15;;;;;;;4.20;0.60;;;16.40;78.30;;;;;;5109145;28;20585;-76
2021/07/29 03:16:43;;;;;;;1.73;0.50;;;16.40;78.30;;;;;;5095512;28;20108;-76
2021/07/29 03:19:10;;;;;;;2.42;0.47;;;16.40;78.30;;;;;;5111804;27;20119;-76
2021/07/29 03:21:37;;;;;;;1.52;0.57;;;16.50;78.30;;;;;;5110339;27;20062;-76
2021/07/29 03:24:04;;;;;;;2.45;0.30;;;16.50;78.20;;;;;;5116083;27;20085;-76
2021/07/29 03:26:31;;;;;;;2.92;0.55;;;16.60;78.20;;;;;;5110340;27;20609;-76
2021/07/29 03:28:58;;;;;;;3.22;0.50;;;16.60;78.20;;;;;;5112469;27;20039;-76
2021/07/29 03:31:25;;;;;;;2.83;0.40;;;16.60;78.10;;;;;;5105317;28;20552;-76
2021/07/29 03:33:52;;;;;;;2.85;0.40;;;16.60;78.10;;;;;;5112006;27;20122;-76
2021/07/29 03:36:19;;;;;;;4.18;0.52;;;16.60;78.10;;;;;;5111818;27;20066;-76
2021/07/29 03:38:47;;;;;;;2.05;0.47;;;16.60;78.10;;;;;;5110078;28;20040;-76
2021/07/29 03:41:14;;;;;;;1.75;0.65;;;16.60;78.00;;;;;;5090863;27;20044;-76
2021/07/29 03:43:40;;;;;;;2.58;0.68;;;16.70;78.10;;;;;;5102850;28;20036;-76
2021/07/29 03:46:09;;;;;;;2.08;0.73;;;16.70;78.10;;;;;;5108276;27;20038;-76
2021/07/29 03:48:36;;;;;;;1.50;0.63;;;16.70;78.00;;;;;;5109612;28;20040;-76
2021/07/29 03:51:03;;;;;;;4.20;0.80;;;16.70;77.90;;;;;;5093012;28;20078;-76
2021/07/29 03:53:30;;;;;;;3.75;1.13;;;16.70;78.00;;;;;;5108204;28;20093;-76
2021/07/29 03:55:57;;;;;;;3.38;1.10;;;16.70;78.00;;;;;;5106394;27;20048;-76
2021/07/29 03:58:24;;;;;;;2.72;0.50;;;16.70;77.90;;;;;;5114042;27;20092;-76
2021/07/29 04:00:55;;;;;;;3.30;0.75;;;16.80;78.00;;;;;;5113367;27;20027;-76
2021/07/29 04:03:22;;;;;;;1.95;0.60;;;16.70;77.90;;;;;;5105499;27;20509;-76
2021/07/29 04:05:49;;;;;;;3.13;0.50;;;16.80;78.00;;;;;;5114771;27;20031;-76
2021/07/29 04:08:16;;;;;;;2.90;0.50;;;16.80;78.00;;;;;;5108335;27;20035;-76
2021/07/29 04:10:43;;;;;;;2.05;0.50;;;16.80;77.90;;;;;;5105837;28;20036;-76
2021/07/29 04:13:09;;;;;;;3.35;0.52;;;16.80;77.90;;;;;;5094586;27;20084;-77
2021/07/29 04:15:36;;;;;;;4.18;0.73;;;16.80;77.90;;;;;;5075821;28;20074;-76
2021/07/29 04:18:03;;;;;;;1.95;0.47;;;16.80;77.90;;;;;;5113220;27;20403;-76
2021/07/29 04:20:30;;;;;;;1.90;0.40;;;16.80;77.90;;;;;;5090609;28;20075;-76
2021/07/29 04:22:57;;;;;;;2.25;0.35;;;16.80;77.90;;;;;;5112219;27;20107;-76
2021/07/29 04:25:25;;;;;;;3.10;0.60;;;16.80;78.10;;;;;;5108489;27;20426;-76
2021/07/29 04:27:52;;;;;;;2.85;0.50;;;16.80;78.10;;;;;;5109551;27;20039;-76
2021/07/29 04:30:18;;;;;;;3.13;0.60;;;16.80;78.10;;;;;;5091223;28;20064;-76
2021/07/29 04:32:46;;;;;;;7.00;0.63;;;16.80;78.20;;;;;;5110068;27;20043;-76
2021/07/29 04:35:12;;;;;;;1.73;0.50;;;16.70;78.50;;;;;;5111665;27;20035;-76
2021/07/29 04:37:39;;;;;;;3.67;0.60;;;16.70;78.70;;;;;;5092518;27;20067;-76
2021/07/29 04:40:07;;;;;;;5.72;0.88;;;16.50;79.60;;;;;;5091414;28;20036;-76
2021/07/29 04:42:34;;;;;;;3.58;0.80;;;16.50;79.50;;;;;;5133066;27;20110;-76
2021/07/29 04:45:01;;;;;;;3.50;0.70;;;16.40;79.80;;;;;;5112453;28;20038;-76
2021/07/29 04:47:28;;;;;;;2.05;0.50;;;16.40;79.90;;;;;;5104432;27;20032;-76
2021/07/29 04:49:55;;;;;;;2.40;0.50;;;16.30;79.90;;;;;;5114394;27;20063;-76
2021/07/29 04:52:22;;;;;;;1.50;0.50;;;16.30;79.90;;;;;;5106681;27;20455;-76
2021/07/29 04:54:49;;;;;;;2.70;0.63;;;16.40;80.00;;;;;;5108520;28;20123;-76
2021/07/29 04:57:16;;;;;;;1.70;0.40;;;16.40;80.00;;;;;;5105688;28;20059;-76
2021/07/29 04:59:43;;;;;;;2.33;0.50;;;16.30;80.00;;;;;;5109117;27;20039;-76
2021/07/29 05:02:10;;;;;;;1.42;0.50;;;16.20;80.80;;;;;;5108787;27;20096;-75
2021/07/29 05:04:37;;;;;;;1.48;0.25;;;16.20;80.30;;;;;;5106746;27;20035;-75
2021/07/29 05:07:04;;;;;;;2.33;0.40;;;16.20;80.50;;;;;;5106622;27;20035;-75
2021/07/29 05:09:31;;;;;;;2.35;0.55;;;16.20;80.50;;;;;;5107440;27;20054;-75
2021/07/29 05:12:00;;;;;;;3.38;0.45;;;16.20;80.50;;;;;;5100052;28;20130;-77
2021/07/29 05:14:27;;;;;;;3.35;0.70;;;16.20;80.50;;;;;;5111422;27;20437;-76
2021/07/29 05:16:58;;;;;;;1.52;0.43;;;16.20;80.50;;;;;;5107682;27;20092;-77
2021/07/29 05:19:25;;;;;;;2.67;0.45;;;16.20;80.40;;;;;;5107723;28;20040;-77
2021/07/29 05:21:52;;;;;;;2.63;0.70;;;16.30;80.40;;;;;;5105344;28;20111;-76
2021/07/29 05:24:19;;;;;;;4.45;0.88;;;16.40;80.40;;;;;;5093906;28;20044;-76
2021/07/29 05:26:46;;;;;;;2.60;0.70;;;16.40;80.20;;;;;;5108307;27;20059;-76
2021/07/29 05:29:13;;;;;;;3.38;0.65;;;16.50;80.10;;;;;;5105546;28;20039;-76
2021/07/29 05:31:41;;;;;;;4.00;0.55;;;16.50;80.00;;;;;;5102402;28;20047;-76
2021/07/29 05:34:12;;;;;;;3.35;0.68;;;16.60;80.10;;;;;;5109645;28;20065;-77
2021/07/29 05:36:39;;;;;;;3.00;0.70;;;16.60;80.00;;;;;;5109816;27;20430;-76
2021/07/29 05:39:06;;;;;;;2.85;0.52;;;16.70;80.00;;;;;;5109922;28;20047;-77
2021/07/29 05:41:33;;;;;;;2.15;0.43;;;16.80;79.90;;;;;;5107986;28;20116;-76
2021/07/29 05:44:00;;;;;;;2.78;0.45;;;17.00;79.70;;;;;;5110578;27;20024;-77
2021/07/29 05:46:27;;;;;;;3.08;0.70;;;17.00;79.50;;;;;;5111691;27;20042;-76
2021/07/29 05:48:54;;;;;;;1.88;0.60;;;17.10;79.30;;;;;;5108778;28;20043;-77
2021/07/29 05:51:21;;;;;;;3.17;0.50;;;17.20;79.30;;;;;;5122745;27;20078;-77
2021/07/29 05:53:48;;;;;;;2.33;0.47;;;17.20;79.20;;;;;;5108734;28;20544;-76
2021/07/29 05:56:15;;;;;;;2.55;0.45;;;17.20;79.10;;;;;;5088098;28;20496;-76
2021/07/29 05:58:42;;;;;;;3.00;0.50;;;17.30;79.20;;;;;;5107581;28;20047;-77
2021/07/29 06:01:09;;;;;;;4.65;0.80;;;17.30;79.10;;;;;;5109624;28;20097;-77
2021/07/29 06:03:36;;;;;;;2.35;0.40;;;17.40;79.00;;;;;;5107552;28;20032;-76
2021/07/29 06:06:06;;;;;;;3.33;0.73;;;17.40;78.80;;;;;;5108949;27;20048;-76
2021/07/29 06:08:38;;;;;;;3.70;0.80;;;17.30;78.80;;;;;;5098873;28;20088;-76
2021/07/29 06:11:05;;;;;;;2.87;0.67;;;17.30;79.00;;;;;;5086845;28;20048;-76
2021/07/29 06:13:32;;;;;;;2.85;0.90;;;17.30;79.00;;;;;;5108645;28;20359;-76
2021/07/29 06:16:02;;;;;;;3.63;0.82;;;17.40;78.80;;;;;;5103211;28;20179;-76
2021/07/29 06:18:29;;;;;;;2.38;0.65;;;17.40;78.70;;;;;;5115588;27;20475;-77
2021/07/29 06:20:56;;;;;;;3.00;0.73;;;17.50;78.70;;;;;;5105153;28;20118;-77
2021/07/29 06:23:23;;;;;;;2.97;1.00;;;17.40;78.50;;;;;;5071264;28;20437;-75
2021/07/29 06:25:50;;;;;;;4.38;0.93;;;17.40;78.30;;;;;;5106237;28;20055;-76
2021/07/29 06:28:17;;;;;;;3.92;1.35;;;17.40;78.40;;;;;;5109489;28;20054;-76
2021/07/29 06:30:44;;;;;;;4.07;1.02;;;17.40;78.60;;;;;;5106815;28;20124;-76
2021/07/29 06:33:11;;;;;;;5.40;1.02;;;17.40;78.70;;;;;;5106499;28;20035;-75
2021/07/29 06:35:39;;;;;;;3.40;0.80;;;17.30;78.70;;;;;;5106141;28;21753;-75
2021/07/29 06:38:09;;;;;;;2.05;0.73;;;17.40;78.70;;;;;;5089043;28;20063;-77
2021/07/29 06:40:36;;;;;;;3.08;1.00;;;17.50;78.50;;;;;;5099449;28;20036;-77
2021/07/29 06:43:03;;;;;;;2.75;0.90;;;17.60;78.30;;;;;;5097309;28;20059;-77
2021/07/29 06:45:30;;;;;;;3.95;0.70;;;17.70;78.10;;;;;;5088324;28;20436;-77
2021/07/29 06:47:57;;;;;;;2.65;0.95;;;17.80;77.90;;;;;;5110346;27;20032;-77
2021/07/29 06:50:24;;;;;;;2.58;0.90;;;18.00;77.70;;;;;;5090293;28;20047;-77
2021/07/29 06:52:51;;;;;;;2.80;0.75;;;18.00;77.50;;;;;;5091994;28;20063;-77
2021/07/29 06:55:24;;;;;;;3.60;1.08;;;18.00;77.40;;;;;;5074885;28;20051;-75
2021/07/29 06:57:51;;;;;;;4.75;1.35;;;18.00;77.20;;;;;;5106791;27;20135;-77
2021/07/29 07:00:20;;;;;;;4.57;1.17;;;18.10;77.30;;;;;;5105075;27;20029;-77
2021/07/29 07:02:47;;;;;;;4.13;0.90;;;18.20;77.80;;;;;;5098722;28;20036;-76
2021/07/29 07:05:14;;;;;;;2.58;0.82;;;18.40;76.90;;;;;;5103842;27;20072;-76
2021/07/29 07:07:41;;;;;;;5.50;0.90;;;18.60;76.30;;;;;;5086519;28;20097;-76
2021/07/29 07:10:08;;;;;;;2.50;1.10;;;18.80;76.00;;;;;;5109005;28;20048;-76
2021/07/29 07:12:36;;;;;;;3.90;1.00;;;18.90;75.50;;;;;;5108000;27;20055;-76
2021/07/29 07:15:04;;;;;;;3.05;1.00;;;19.00;75.30;;;;;;5100311;27;20099;-77
2021/07/29 07:17:34;;;;;;;4.38;1.30;;;19.00;75.10;;;;;;5086035;28;20055;-77
2021/07/29 07:20:01;;;;;;;5.80;1.45;;;19.20;74.80;;;;;;5090262;27;20039;-77
2021/07/29 07:22:28;;;;;;;3.72;0.88;;;19.20;74.00;;;;;;5089613;28;20043;-77
2021/07/29 07:24:56;;;;;;;3.42;1.10;;;19.10;74.10;;;;;;5082873;28;20043;-76
2021/07/29 07:27:23;;;;;;;8.02;1.33;;;19.10;74.30;;;;;;5093094;28;20434;-79
2021/07/29 07:29:57;;;;;;;3.55;0.90;;;19.10;74.40;;;;;;5092137;28;20055;-77
2021/07/29 07:32:24;;;;;;;3.35;0.90;;;19.20;74.30;;;;;;5115625;27;20043;-77
2021/07/29 07:34:51;;;;;;;2.90;0.80;;;19.20;74.00;;;;;;5112435;28;20035;-76
2021/07/29 07:37:21;;;;;;;1.75;0.65;;;19.40;74.00;;;;;;5075435;28;20040;-77
2021/07/29 07:39:48;;;;;;;4.72;0.90;;;19.50;73.70;;;;;;5072345;28;20085;-77
2021/07/29 07:42:16;;;;;;;2.88;0.70;;;19.60;73.40;;;;;;5066145;28;20043;-76
2021/07/29 07:44:46;;;;;;;4.38;0.60;;;19.70;73.20;;;;;;5109443;28;20373;-77
2021/07/29 07:47:13;;;;;;;3.40;1.15;;;19.80;73.00;;;;;;5108449;27;20041;-77
2021/07/29 07:49:40;;;;;;;4.65;1.02;;;19.70;73.00;;;;;;5087757;28;20105;-76
2021/07/29 07:52:10;;;;;;;2.22;0.82;;;19.70;72.20;;;;;;5124588;27;20113;-76
2021/07/29 07:54:37;;;;;;;6.78;1.25;;;19.60;72.00;;;;;;5090196;28;20448;-76
2021/07/29 07:57:07;;;;;;;5.60;1.67;;;19.60;72.00;;;;;;5105844;28;20482;-76
2021/07/29 07:59:38;;;;;;;6.72;1.50;;;19.60;70.90;;;;;;5083447;28;20040;-77
2021/07/29 08:02:06;;;;;;;7.88;1.90;;;19.50;71.30;;;;;;5117333;27;20090;-76
2021/07/29 08:04:34;;;;;;;4.40;1.65;;;19.40;70.80;;;;;;5101637;27;20570;-76
2021/07/29 08:07:01;;;;;;;7.00;1.60;;;19.40;70.90;;;;;;5078488;28;20150;-77
2021/07/29 08:09:28;;;;;;;3.35;1.02;;;19.20;70.90;;;;;;5110170;27;20487;-76
2021/07/29 08:11:55;;;;;;;5.43;1.33;;;19.20;72.00;;;;;;5090410;28;20059;-76
2021/07/29 08:14:22;;;;;;;2.13;1.02;;;19.30;71.90;;;;;;5100190;27;20044;-76
2021/07/29 08:16:49;;;;;;;4.75;1.00;;;19.40;71.00;;;;;;5105546;28;20101;-75
2021/07/29 08:19:16;;;;;;;3.65;1.13;;;19.50;70.80;;;;;;5107801;28;20047;-77
2021/07/29 08:21:43;;;;;;;3.20;0.70;;;19.60;70.60;;;;;;5073286;28;20044;-76
2021/07/29 08:24:11;;;;;;;3.95;0.88;;;19.70;70.40;;;;;;5102665;27;20131;-76
2021/07/29 08:26:38;;;;;;;3.33;0.88;;;19.80;70.20;;;;;;5073039;28;20048;-76
2021/07/29 08:29:05;;;;;;;4.80;1.23;;;20.00;70.10;;;;;;5090859;28;20040;-77
2021/07/29 08:31:32;;;;;;;4.43;1.15;;;20.20;69.90;;;;;;5070971;28;20148;-76
2021/07/29 08:33:59;;;;;;;2.92;0.80;;;20.40;69.20;;;;;;5103489;28;20036;-77
2021/07/29 08:36:26;;;;;;;2.30;0.88;;;20.70;69.00;;;;;;5095671;28;20112;-78
2021/07/29 08:38:53;;;;;;;4.45;0.90;;;20.90;68.60;;;;;;5097215;28;20493;-76
2021/07/29 08:41:20;;;;;;;3.70;0.90;;;20.90;67.90;;;;;;5102225;28;20059;-75
2021/07/29 08:43:47;;;;;;;4.90;1.25;;;20.80;67.60;;;;;;5088285;27;20544;-75
2021/07/29 08:46:19;;;;;;;4.30;1.13;;;20.70;66.00;;;;;;5086121;28;20032;-75
2021/07/29 08:48:48;;;;;;;4.05;1.20;;;20.60;66.40;;;;;;5069384;28;20040;-76
2021/07/29 08:51:22;;;;;;;3.78;1.05;;;20.50;66.60;;;;;;5106210;27;20540;-75
2021/07/29 08:53:49;;;;;;;3.72;0.98;;;20.60;66.20;;;;;;5106467;28;20127;-75
2021/07/29 08:56:23;;;;;;;3.85;0.60;;;20.70;66.10;;;;;;5106924;28;20086;-75
2021/07/29 08:58:52;;;;;;;5.07;1.10;;;20.80;66.00;;;;;;5107777;28;20039;-75
2021/07/29 09:01:19;;;;;;;3.60;0.90;;;21.00;64.80;;;;;;5115456;27;20044;-75
2021/07/29 09:03:52;;;;;;;5.45;0.90;;;21.00;65.10;;;;;;5122665;27;20035;-75
2021/07/29 09:06:19;;;;;;;3.88;1.02;;;21.10;64.70;;;;;;5106324;27;20079;-75
2021/07/29 09:08:46;;;;;;;4.53;0.68;;;21.10;64.70;;;;;;5105856;27;20035;-75
2021/07/29 09:11:36;;;;;;;4.05;0.95;;;21.10;63.50;;;;;;5101656;28;20039;-75
2021/07/29 09:14:12;;;;;;;5.32;0.60;;;21.20;63.40;;;;;;5107710;28;20073;-76
2021/07/29 09:17:04;;;;;;;2.92;0.85;;;21.10;63.70;;;;;;5106034;28;20126;-75
2021/07/29 09:19:38;;;;;;;3.17;0.70;;;21.10;63.90;;;;;;5106741;28;20055;-76
2021/07/29 09:22:15;;;;;;;4.85;1.00;;;21.30;63.90;;;;;;5095356;27;20044;-76
2021/07/29 09:25:03;;;;;;;3.15;0.60;;;21.30;63.50;;;;;;5100220;28;20040;-75
2021/07/29 09:27:40;;;;;;;4.88;0.88;;;21.40;63.40;;;;;;5102186;27;20044;-75
2021/07/29 09:30:14;;;;;;;2.78;0.85;;;21.40;63.20;;;;;;5107465;28;20494;-76
2021/07/29 09:33:03;;;;;;;3.05;0.60;;;21.40;62.90;;;;;;5102450;28;20074;-76
2021/07/29 09:35:34;;;;;;;2.45;0.70;;;21.50;61.90;;;;;;5102469;28;20153;-75
2021/07/29 09:38:04;;;;;;;2.67;0.57;;;21.60;62.70;;;;;;5106138;27;20044;-75
2021/07/29 09:41:03;;;;;;;2.63;0.80;;;21.80;61.90;;;;;;5105841;27;20048;-76
2021/07/29 09:43:32;;;;;;;3.55;0.88;;;22.00;60.80;;;;;;5106501;28;20035;-76
2021/07/29 09:46:03;;;;;;;3.53;0.90;;;22.10;59.80;;;;;;5106891;27;20114;-76
2021/07/29 09:48:30;;;;;;;2.05;0.60;;;22.20;59.00;;;;;;5111663;27;20065;-75
2021/07/29 09:50:59;;;;;;;4.85;0.65;;;22.30;59.40;;;;;;5103878;28;20070;-76
2021/07/29 09:53:32;;;;;;;4.35;1.70;;;22.40;58.80;;;;;;5105351;28;20039;-76
2021/07/29 09:56:00;;;;;;;3.92;0.68;;;22.40;58.30;;;;;;5108587;28;20721;-76
2021/07/29 09:58:27;;;;;;;3.85;0.88;;;22.20;57.80;;;;;;5093710;28;20510;-77
2021/07/29 10:00:54;;;;;;;2.55;0.60;;;21.90;57.20;;;;;;5105115;28;20111;-76
2021/07/29 10:03:22;;;;;;;4.10;0.85;;;21.80;58.10;;;;;;5102702;28;20467;-76
2021/07/29 10:05:59;;;;;;;3.42;0.80;;;21.70;57.90;;;;;;5103035;28;20043;-76
2021/07/29 10:08:36;;;;;;;3.33;0.93;;;21.70;57.80;;;;;;5110276;28;20036;-77
2021/07/29 10:11:07;;;;;;;1.92;0.70;;;21.70;58.50;;;;;;5084321;28;20040;-76
2021/07/29 10:13:38;;;;;;;3.53;0.55;;;21.60;59.00;;;;;;5122371;27;20174;-76
2021/07/29 10:16:07;;;;;;;3.25;0.82;;;21.50;59.00;;;;;;5107828;27;20047;-77
2021/07/29 10:18:58;;;;;;;4.45;1.05;;;21.40;59.10;;;;;;5109631;27;20043;-77
2021/07/29 10:21:29;;;;;;;2.85;0.70;;;21.30;59.20;;;;;;5107716;27;20050;-77
2021/07/29 10:24:00;;;;;;;2.70;0.73;;;21.20;59.60;;;;;;5103232;28;20036;-76
2021/07/29 10:26:29;;;;;;;3.55;0.88;;;21.30;59.70;;;;;;5104986;28;20032;-76
2021/07/29 10:29:18;;;;;;;2.78;0.75;;;21.60;59.30;;;;;;5106592;28;20418;-76
2021/07/29 10:31:59;;;;;;;3.53;0.77;;;21.70;59.00;;;;;;5107947;27;20039;-76
2021/07/29 10:34:31;;;;;;;4.40;1.00;;;21.60;58.60;;;;;;5106294;28;20067;-77
2021/07/29 10:36:59;;;;;;;;;;;21.40;58.80;;;;;;5108099;27;20084;-76
2021/07/29 10:39:27;;;;;;;2.97;0.93;;;21.20;59.10;;;;;;5116722;27;19919;-77
2021/07/29 10:41:55;;;;;;;4.07;1.00;;;20.70;60.20;;;;;;5112723;27;20043;-76
2021/07/29 10:44:43;;;;;;;4.88;1.20;;;20.10;62.20;;;;;;5103309;28;20111;-76
2021/07/29 10:47:14;;;;;;;4.32;0.82;;;19.60;64.60;;;;;;5113555;28;20395;-77
2021/07/29 10:49:44;;;;;;;3.72;0.70;;;19.40;65.00;;;;;;5098284;27;20079;-76
2021/07/29 10:52:12;;;;;;;3.28;0.70;;;19.10;65.90;;;;;;5112386;28;20044;-75
2021/07/29 10:54:41;;;;;;;5.53;1.33;;;18.90;67.00;;;;;;5112513;28;20547;-74
2021/07/29 10:57:11;;;;;;;5.03;1.70;;;18.40;69.40;;;;;;5112804;28;20052;-82
2021/07/29 10:59:38;;;;;;;10.70;2.45;;;17.70;73.70;;;;;;5107987;28;20407;-83
2021/07/29 11:02:26;;;;;;;5.95;1.77;;;17.10;76.40;;;;;;5116191;28;20387;-81
2021/07/29 11:04:58;;;;;;;5.15;1.60;;;16.80;77.10;;;;;;5134053;27;20035;-83
2021/07/29 11:07:25;;;;;;;5.53;1.33;;;16.70;78.30;;;;;;5105408;27;20028;-81
2021/07/29 11:10:05;;;;;;;3.35;1.33;;;17.00;78.20;;;;;;5110591;27;20031;-82
2021/07/29 11:12:35;;;;;;;4.72;1.58;;;17.20;77.60;;;;;;5111439;28;20040;-80
2021/07/29 11:15:06;;;;;;;7.97;1.85;;;17.30;77.90;;;;;;5112907;28;20048;-81
2021/07/29 11:17:33;;;;;;;4.30;1.80;;;17.40;78.30;;;;;;5115368;27;20039;-82
2021/07/29 11:20:00;;;;;;;3.33;1.20;;;17.50;78.20;;;;;;5111589;28;20066;-80
2021/07/29 11:22:44;;;;;;;5.22;1.50;;;17.80;77.80;;;;;;5114031;28;20036;-81
2021/07/29 11:25:12;;;;;;;3.92;1.33;;;18.00;77.70;;;;;;5114894;27;20391;-80
2021/07/29 11:27:39;;;;;;;6.28;2.08;;;18.20;77.50;;;;;;5115130;27;20111;-80
2021/07/29 11:30:06;;;;;;;6.15;2.30;;;18.30;77.80;;;;;;5113712;28;20505;-80
2021/07/29 11:32:36;;;;;;;6.03;1.77;;;18.30;77.40;;;;;;5114887;27;20114;-80
2021/07/29 11:35:04;;;;;;;5.13;1.50;;;18.20;77.20;;;;;;5115788;27;20040;-80
2021/07/29 11:37:41;;;;;;;8.75;1.73;;;18.20;77.20;;;;;;5109896;27;20031;-83
2021/07/29 11:40:23;;;;;;;8.68;1.63;;;18.30;76.90;;;;;;5112665;28;20038;-83
2021/07/29 11:42:50;;;;;;;3.90;1.17;;;18.40;76.70;;;;;;5103129;27;20032;-82
2021/07/29 11:45:32;;;;;;;4.50;1.20;;;18.40;76.70;;;;;;5090600;28;20067;-80
2021/07/29 11:48:00;;;;;;;4.93;1.40;;;18.40;76.60;;;;;;5110371;28;20491;-82
2021/07/29 11:50:44;;;;;;;5.53;1.23;;;18.40;76.60;;;;;;5106024;28;20039;-81
2021/07/29 11:53:11;;;;;;;5.18;1.02;;;18.40;76.30;;;;;;5099939;28;20036;-81
2021/07/29 11:55:40;;;;;;;4.50;1.13;;;18.50;76.40;;;;;;5102337;27;20048;-85
2021/07/29 11:58:13;;;;;;;4.93;0.95;;;18.60;75.90;;;;;;5112746;28;20052;-86
2021/07/29 12:00:41;;;;;;;5.15;0.80;;;18.70;75.60;;;;;;5106303;28;20074;-84
2021/07/29 12:03:27;;;;;;;2.20;0.90;;;18.90;75.40;;;;;;5095069;28;20046;-83
2021/07/29 12:05:58;;;;;;;3.67;1.13;;;19.60;74.40;;;;;;5111573;28;20483;-82
2021/07/29 12:08:29;;;;;;;2.63;0.68;;;20.10;72.90;;;;;;5113754;27;20039;-83
2021/07/29 12:10:58;;;;;;;4.75;0.85;;;20.50;71.70;;;;;;5114284;28;20542;-85
2021/07/29 12:13:25;;;;;;;3.78;1.33;;;20.80;71.10;;;;;;5088923;28;20032;-83
2021/07/29 12:15:54;;;;;;;4.60;1.00;;;21.20;70.30;;;;;;5108797;28;20490;-81
2021/07/29 12:18:22;;;;;;;3.33;0.80;;;21.60;69.40;;;;;;5105468;28;20031;-85
2021/07/29 12:20:54;;;;;;;3.03;0.95;;;21.90;68.80;;;;;;5074370;28;20044;-80
2021/07/29 12:23:23;;;;;;;3.28;0.90;;;21.90;68.70;;;;;;5110837;28;20069;-81
2021/07/29 12:25:51;;;;;;;3.40;0.95;;;22.30;68.70;;;;;;5091395;28;20491;-84
2021/07/29 12:28:38;;;;;;;3.70;0.98;;;22.50;67.00;;;;;;5075754;28;20406;-83
2021/07/29 12:31:27;;;;;;;10.07;1.60;;;22.30;66.10;;;;;;5106749;28;20074;-80
2021/07/29 12:33:59;;;;;;;9.02;1.42;;;21.90;65.70;;;;;;5082927;28;20046;-79
2021/07/29 12:36:46;;;;;;;5.47;1.17;;;21.50;64.50;;;;;;5101682;28;20133;-81
2021/07/29 12:39:16;;;;;;;5.03;1.23;;;21.80;65.10;;;;;;5113702;27;20066;-82
2021/07/29 12:41:46;;;;;;;4.57;1.10;;;21.60;64.70;;;;;;5086358;28;20138;-81
2021/07/29 12:44:18;;;;;;;6.22;1.05;;;21.20;65.20;;;;;;5103891;28;20139;-82
2021/07/29 12:46:46;;;;;;;;;;;20.90;66.30;;;;;;5111586;27;20044;-82
2021/07/29 12:49:14;;;;;;;4.78;0.85;;;20.60;67.30;;;;;;5103908;28;20006;-83
2021/07/29 12:51:45;;;;;;;3.55;1.27;;;20.40;67.40;;;;;;5099734;28;20396;-85
2021/07/29 12:54:15;;;;;;;4.53;1.10;;;20.30;67.70;;;;;;5086320;28;20077;-82
2021/07/29 12:56:43;;;;;;;6.32;1.60;;;20.20;67.40;;;;;;5102497;27;20585;-83
2021/07/29 12:59:11;;;;;;;4.30;1.13;;;20.40;66.70;;;;;;5088415;28;20051;-84